createdAt,value
2023-05-12T00:00:08.279Z,3.50
2023-05-12T00:02:38.321Z,4.77
2023-05-12T00:05:07.644Z,3.77
2023-05-12T00:07:36.574Z,4.17
2023-05-12T00:10:05.670Z,4.20
2023-05-12T00:12:34.291Z,3.80
2023-05-12T00:15:02.951Z,3.90
2023-05-12T00:17:31.524Z,5.47
2023-05-12T00:20:01.653Z,10.03
2023-05-12T00:22:30.073Z,9.23
2023-05-12T00:24:58.667Z,7.60
2023-05-12T00:27:27.224Z,5.27
2023-05-12T00:29:55.714Z,4.60
2023-05-12T00:32:24.208Z,4.60
2023-05-12T00:34:54.550Z,4.10
2023-05-12T00:37:24.586Z,3.80
2023-05-12T00:39:53.073Z,4.03
2023-05-12T00:42:21.598Z,4.50
2023-05-12T00:44:50.191Z,6.73
2023-05-12T00:47:20.388Z,6.10
2023-05-12T00:49:48.959Z,6.67
2023-05-12T00:52:17.423Z,5.40
2023-05-12T00:54:48.045Z,4.60
2023-05-12T00:57:16.572Z,4.53
2023-05-12T00:59:45.052Z,4.40
2023-05-12T01:02:13.632Z,3.77
2023-05-12T01:04:42.176Z,4.50
2023-05-12T01:07:18.182Z,4.90
2023-05-12T01:09:48.053Z,5.53
2023-05-12T01:12:16.762Z,5.30
2023-05-12T01:14:45.288Z,4.33
2023-05-12T01:17:15.526Z,4.30
2023-05-12T01:19:47.751Z,4.90
2023-05-12T01:22:17.760Z,4.57
2023-05-12T01:24:55.447Z,3.50
2023-05-12T01:27:27.673Z,3.90
2023-05-12T01:29:59.395Z,3.70
2023-05-12T01:32:28.014Z,4.23
2023-05-12T01:34:56.588Z,5.10
2023-05-12T01:37:27.094Z,4.20
2023-05-12T01:39:55.823Z,4.33
2023-05-12T01:42:25.961Z,4.77
2023-05-12T01:44:54.465Z,4.33
2023-05-12T01:47:23.038Z,4.77
2023-05-12T01:49:51.615Z,4.03
2023-05-12T01:52:20.694Z,4.00
2023-05-12T01:54:49.304Z,4.27
2023-05-12T01:57:17.794Z,3.90
2023-05-12T01:59:47.691Z,4.47
2023-05-12T02:02:16.367Z,3.77
2023-05-12T02:04:44.991Z,4.13
2023-05-12T02:07:13.430Z,3.77
2023-05-12T02:09:42.039Z,3.80
2023-05-12T02:12:11.118Z,4.30
2023-05-12T02:14:39.708Z,3.50
2023-05-12T02:17:09.829Z,4.10
2023-05-12T02:19:38.338Z,4.07
2023-05-12T02:22:06.960Z,4.13
2023-05-12T02:24:35.532Z,3.97
2023-05-12T02:27:04.012Z,4.23
2023-05-12T02:29:32.605Z,3.83
2023-05-12T02:32:05.987Z,4.40
2023-05-12T02:34:43.042Z,3.70
2023-05-12T02:37:11.803Z,3.60
2023-05-12T02:39:40.450Z,3.93
2023-05-12T02:42:09.464Z,4.30
2023-05-12T02:44:37.983Z,4.70
2023-05-12T02:47:07.103Z,3.90
2023-05-12T02:49:37.595Z,3.83
2023-05-12T02:52:07.028Z,4.00
2023-05-12T02:54:35.596Z,3.83
2023-05-12T02:57:07.074Z,3.67
2023-05-12T02:59:36.507Z,4.13
2023-05-12T03:02:05.829Z,4.17
2023-05-12T03:04:34.550Z,4.17
2023-05-12T03:07:04.786Z,4.40
2023-05-12T03:09:33.501Z,4.30
2023-05-12T03:12:02.168Z,4.10
2023-05-12T03:14:30.749Z,4.57
2023-05-12T03:16:59.425Z,4.10
2023-05-12T03:19:28.120Z,4.47
2023-05-12T03:21:56.975Z,4.73
2023-05-12T03:24:26.963Z,7.63
2023-05-12T03:26:55.464Z,8.67
2023-05-12T03:29:24.850Z,9.83
2023-05-12T03:31:53.446Z,8.53
2023-05-12T03:34:22.113Z,7.90
2023-05-12T03:36:50.800Z,5.63
2023-05-12T03:39:19.411Z,5.70
2023-05-12T03:41:49.528Z,4.87
2023-05-12T03:44:19.041Z,4.87
2023-05-12T03:46:47.882Z,3.93
2023-05-12T03:49:16.713Z,3.77
2023-05-12T03:51:45.311Z,4.67
2023-05-12T03:54:14.018Z,4.33
2023-05-12T03:56:42.593Z,4.87
2023-05-12T03:59:13.138Z,4.60
2023-05-12T04:01:41.976Z,5.30
2023-05-12T04:04:10.992Z,4.17
2023-05-12T04:06:39.721Z,4.60
2023-05-12T04:09:08.300Z,4.40
2023-05-12T04:11:37.317Z,4.37
2023-05-12T04:14:06.299Z,4.80
2023-05-12T04:16:37.073Z,4.47
2023-05-12T04:19:05.835Z,4.20
2023-05-12T04:21:34.521Z,4.50
2023-05-12T04:24:03.096Z,3.93
2023-05-12T04:26:31.580Z,4.30
2023-05-12T04:29:00.189Z,3.80
2023-05-12T04:31:28.932Z,4.17
2023-05-12T04:33:58.893Z,4.17
2023-05-12T04:36:28.714Z,3.83
2023-05-12T04:38:57.512Z,4.20
2023-05-12T04:41:26.401Z,4.73
2023-05-12T04:46:26.574Z,4.30
2023-05-12T04:48:55.369Z,4.20
2023-05-12T04:51:25.540Z,4.23
2023-05-12T04:53:54.056Z,4.73
2023-05-12T04:56:23.259Z,4.57
2023-05-12T04:58:52.023Z,4.20
2023-05-12T05:01:20.577Z,4.80
2023-05-12T05:03:49.893Z,4.80
2023-05-12T05:06:19.166Z,4.53
2023-05-12T05:08:49.067Z,4.63
2023-05-12T05:11:17.558Z,5.43
2023-05-12T05:13:46.047Z,4.47
2023-05-12T05:16:14.942Z,4.40
2023-05-12T05:18:46.916Z,4.50
2023-05-12T05:21:15.731Z,4.07
2023-05-12T05:23:44.301Z,4.53
2023-05-12T05:26:19.706Z,4.73
2023-05-12T05:28:48.180Z,4.30
2023-05-12T05:31:17.983Z,3.97
2023-05-12T05:33:46.485Z,5.20
2023-05-12T05:36:15.188Z,4.43
2023-05-12T05:38:43.909Z,3.80
2023-05-12T05:41:12.410Z,4.20
2023-05-12T05:43:42.316Z,4.13
2023-05-12T05:46:11.063Z,3.87
2023-05-12T05:48:39.554Z,3.90
2023-05-12T05:51:07.993Z,3.70
2023-05-12T05:53:36.660Z,4.13
2023-05-12T05:56:05.674Z,4.20
2023-05-12T05:58:34.315Z,3.83
2023-05-12T06:01:05.903Z,4.00
2023-05-12T06:03:35.640Z,4.00
2023-05-12T06:06:05.404Z,4.00
2023-05-12T06:08:34.099Z,4.00
2023-05-12T06:11:02.506Z,3.80
2023-05-12T06:13:31.060Z,4.00
2023-05-12T06:15:59.507Z,4.33
2023-05-12T06:18:29.656Z,3.90
2023-05-12T06:20:58.397Z,4.17
2023-05-12T06:23:27.088Z,4.13
2023-05-12T06:25:55.588Z,4.63
2023-05-12T06:28:24.045Z,3.77
2023-05-12T06:30:52.864Z,3.77
2023-05-12T06:33:21.732Z,4.37
2023-05-12T06:35:51.962Z,4.20
2023-05-12T06:38:23.056Z,4.40
2023-05-12T06:40:54.303Z,4.03
2023-05-12T06:43:23.665Z,4.67
2023-05-12T06:45:52.165Z,3.77
2023-05-12T06:48:20.974Z,3.60
2023-05-12T06:50:52.290Z,3.47
2023-05-12T06:53:21.793Z,3.90
2023-05-12T06:55:51.438Z,3.43
2023-05-12T06:58:22.198Z,4.23
2023-05-12T07:00:50.971Z,3.80
2023-05-12T07:03:19.466Z,3.83
2023-05-12T07:05:47.974Z,3.70
2023-05-12T07:08:17.955Z,3.30
2023-05-12T07:10:46.597Z,3.60
2023-05-12T07:13:15.118Z,3.60
2023-05-12T07:15:43.631Z,4.13
2023-05-12T07:18:12.526Z,3.80
2023-05-12T07:20:41.156Z,3.60
2023-05-12T07:23:10.348Z,3.20
2023-05-12T07:25:40.988Z,3.07
2023-05-12T07:28:09.608Z,3.53
2023-05-12T07:30:38.896Z,3.43
2023-05-12T07:33:08.837Z,3.40
2023-05-12T07:35:37.253Z,3.03
2023-05-12T07:38:05.708Z,3.00
2023-05-12T07:40:34.234Z,3.50
2023-05-12T07:43:04.324Z,3.23
2023-05-12T07:45:32.784Z,3.13
2023-05-12T07:48:01.321Z,3.37
2023-05-12T07:50:29.877Z,4.03
2023-05-12T07:52:58.391Z,2.87
2023-05-12T07:55:27.066Z,3.03
2023-05-12T07:57:55.565Z,2.60
2023-05-12T08:00:25.596Z,3.17
2023-05-12T08:02:54.329Z,2.80
2023-05-12T08:05:23.100Z,3.10
2023-05-12T08:07:52.099Z,2.60
2023-05-12T08:10:20.931Z,2.80
2023-05-12T08:12:49.467Z,3.30
2023-05-12T08:15:18.099Z,3.43
2023-05-12T08:17:48.549Z,3.10
2023-05-12T08:20:17.374Z,2.80
2023-05-12T08:22:48.083Z,3.00
2023-05-12T08:25:16.447Z,2.93
2023-05-12T08:27:45.848Z,2.70
2023-05-12T08:30:15.278Z,2.67
2023-05-12T08:32:43.827Z,2.57
2023-05-12T08:35:13.999Z,2.67
2023-05-12T08:37:45.642Z,2.50
2023-05-12T08:40:25.262Z,2.70
2023-05-12T08:43:04.292Z,2.63
2023-05-12T08:45:34.303Z,2.60
2023-05-12T08:48:04.472Z,2.93
2023-05-12T08:50:37.442Z,3.10
2023-05-12T08:53:06.820Z,3.10
2023-05-12T08:55:36.737Z,2.60
2023-05-12T08:58:05.432Z,2.57
2023-05-12T09:00:36.522Z,2.77
2023-05-12T09:03:07.704Z,2.87
2023-05-12T09:05:39.736Z,2.63
2023-05-12T09:08:11.155Z,2.50
2023-05-12T09:10:44.082Z,3.20
2023-05-12T09:13:17.749Z,2.30
2023-05-12T09:15:49.505Z,2.47
2023-05-12T09:18:18.004Z,2.60
2023-05-12T09:20:47.861Z,2.50
2023-05-12T09:23:18.893Z,2.53
2023-05-12T09:25:48.471Z,2.50
2023-05-12T09:28:17.779Z,2.00
2023-05-12T09:30:47.039Z,2.60
2023-05-12T09:33:17.003Z,2.70
2023-05-12T09:35:47.978Z,2.63
2023-05-12T09:38:16.597Z,2.10
2023-05-12T09:40:46.033Z,2.30
2023-05-12T09:43:22.232Z,2.33
2023-05-12T09:45:52.872Z,2.23
2023-05-12T09:48:24.424Z,2.17
2023-05-12T09:50:55.343Z,1.90
2023-05-12T09:53:24.222Z,2.13
2023-05-12T09:55:53.204Z,2.00
2023-05-12T09:58:23.785Z,2.00
2023-05-12T10:03:29.570Z,2.33
2023-05-12T10:06:02.212Z,2.10
2023-05-12T10:08:35.618Z,2.23
2023-05-12T10:11:06.292Z,2.23
2023-05-12T10:13:35.442Z,2.20
2023-05-12T10:16:04.654Z,2.40
2023-05-12T10:18:34.890Z,1.90
2023-05-12T10:21:05.005Z,1.80
2023-05-12T10:23:37.697Z,1.80
2023-05-12T10:26:08.117Z,1.90
2023-05-12T10:28:36.519Z,1.83
2023-05-12T10:31:07.223Z,2.20
2023-05-12T10:33:36.163Z,2.17
2023-05-12T10:36:09.566Z,2.20
2023-05-12T10:38:39.785Z,1.83
2023-05-12T10:41:13.203Z,2.07
2023-05-12T10:43:47.081Z,2.07
2023-05-12T10:46:23.149Z,1.87
2023-05-12T10:48:57.697Z,2.10
2023-05-12T10:51:30.140Z,2.40
2023-05-12T10:54:10.282Z,2.33
2023-05-12T10:56:45.814Z,2.10
2023-05-12T10:59:19.555Z,2.10
2023-05-12T11:02:05.387Z,1.83
2023-05-12T11:04:41.541Z,1.97
2023-05-12T11:07:14.279Z,1.87
2023-05-12T11:09:56.855Z,1.90
2023-05-12T11:12:28.185Z,2.07
2023-05-12T11:14:57.137Z,2.13
2023-05-12T11:17:25.757Z,2.20
2023-05-12T11:19:56.374Z,2.20
2023-05-12T11:22:32.402Z,2.00
2023-05-12T11:25:11.755Z,1.90
2023-05-12T11:27:45.697Z,2.33
2023-05-12T11:30:17.843Z,2.07
2023-05-12T11:32:49.219Z,1.70
2023-05-12T11:35:20.020Z,2.10
2023-05-12T11:37:50.639Z,1.83
2023-05-12T11:40:21.178Z,2.10
2023-05-12T11:42:53.204Z,2.03
2023-05-12T11:45:27.154Z,1.90
2023-05-12T11:48:06.524Z,2.13
2023-05-12T11:50:35.129Z,2.17
2023-05-12T11:53:04.973Z,1.80
2023-05-12T11:55:34.377Z,1.90
2023-05-12T11:58:05.787Z,1.90
2023-05-12T12:00:35.786Z,1.87
2023-05-12T12:03:22.473Z,1.90
2023-05-12T12:06:00.324Z,2.00
2023-05-12T12:08:30.424Z,1.80
2023-05-12T12:11:01.368Z,2.00
2023-05-12T12:13:31.507Z,1.93
2023-05-12T12:16:00.120Z,1.93
2023-05-12T12:18:28.653Z,2.17
2023-05-12T12:20:57.159Z,2.13
2023-05-12T12:23:25.679Z,1.87
2023-05-12T12:25:55.713Z,1.90
2023-05-12T12:28:24.266Z,1.80
2023-05-12T12:30:53.110Z,2.07
2023-05-12T12:33:21.774Z,1.87
2023-05-12T12:35:50.437Z,1.87
2023-05-12T12:38:20.060Z,2.40
2023-05-12T12:40:48.848Z,2.33
2023-05-12T12:43:22.151Z,2.00
2023-05-12T12:45:51.420Z,2.03
2023-05-12T12:48:20.235Z,1.83
2023-05-12T12:50:48.737Z,1.80
2023-05-12T12:53:19.884Z,1.90
2023-05-12T12:55:48.595Z,1.50
2023-05-12T12:58:21.489Z,2.00
2023-05-12T13:00:50.670Z,1.70
2023-05-12T13:03:20.477Z,1.80
2023-05-12T13:05:49.622Z,1.60
2023-05-12T13:08:18.481Z,1.80
2023-05-12T13:10:47.269Z,1.77
2023-05-12T13:13:21.178Z,2.47
2023-05-12T13:15:51.821Z,2.17
2023-05-12T13:18:20.891Z,2.63
2023-05-12T13:20:49.680Z,1.73
2023-05-12T13:23:18.610Z,1.90
2023-05-12T13:25:49.771Z,1.90
2023-05-12T13:28:24.269Z,1.90
2023-05-12T13:30:54.114Z,1.80
2023-05-12T13:33:23.726Z,2.10
2023-05-12T13:35:52.723Z,1.73
2023-05-12T13:38:22.622Z,1.70
2023-05-12T13:40:51.316Z,1.67
2023-05-12T13:43:22.266Z,1.97
2023-05-12T13:45:51.249Z,1.77
2023-05-12T13:48:19.973Z,1.60
2023-05-12T13:50:49.131Z,1.60
2023-05-12T13:53:18.243Z,1.60
2023-05-12T13:55:47.168Z,1.40
2023-05-12T13:58:18.631Z,1.60
2023-05-12T14:00:49.649Z,1.50
2023-05-12T14:03:18.377Z,1.73
2023-05-12T14:05:46.761Z,1.40
2023-05-12T14:08:15.489Z,1.30
2023-05-12T14:10:45.322Z,1.57
2023-05-12T14:13:14.111Z,1.63
2023-05-12T14:15:49.406Z,1.80
2023-05-12T14:18:20.597Z,2.00
2023-05-12T14:20:49.512Z,1.60
2023-05-12T14:23:18.104Z,1.70
2023-05-12T14:25:46.710Z,1.53
2023-05-12T14:28:15.292Z,1.53
2023-05-12T14:30:45.631Z,1.60
2023-05-12T14:33:14.300Z,1.50
2023-05-12T14:35:52.889Z,1.23
2023-05-12T14:38:28.869Z,1.90
2023-05-12T14:40:57.696Z,1.40
2023-05-12T14:43:26.351Z,1.47
2023-05-12T14:45:55.708Z,1.67
2023-05-12T14:48:26.298Z,1.70
2023-05-12T14:50:56.510Z,1.37
2023-05-12T14:53:25.825Z,1.60
2023-05-12T14:55:54.309Z,1.60
2023-05-12T14:58:24.521Z,1.60
2023-05-12T15:00:53.767Z,1.40
2023-05-12T15:03:22.693Z,1.60
2023-05-12T15:08:24.812Z,1.60
2023-05-12T15:10:53.300Z,1.43
2023-05-12T15:13:22.909Z,1.47
2023-05-12T15:15:55.201Z,2.00
2023-05-12T15:18:25.602Z,2.60
2023-05-12T15:20:54.325Z,3.37
2023-05-12T15:23:24.536Z,1.90
2023-05-12T15:25:53.020Z,1.90
2023-05-12T15:28:21.710Z,1.40
2023-05-12T15:30:56.873Z,1.50
2023-05-12T15:33:26.488Z,1.67
2023-05-12T15:35:55.362Z,1.67
2023-05-12T15:38:25.620Z,1.40
2023-05-12T15:40:54.181Z,1.50
2023-05-12T15:43:22.693Z,1.47
2023-05-12T15:45:51.153Z,1.60
2023-05-12T15:48:19.630Z,1.80
2023-05-12T15:50:48.219Z,2.07
2023-05-12T15:53:17.335Z,2.13
2023-05-12T15:55:47.385Z,1.70
2023-05-12T15:58:16.085Z,1.73
2023-05-12T16:00:44.858Z,1.77
2023-05-12T16:03:13.626Z,2.33
2023-05-12T16:05:42.369Z,2.00
2023-05-12T16:08:11.012Z,1.70
2023-05-12T16:10:40.105Z,1.70
2023-05-12T16:13:10.577Z,2.17
2023-05-12T16:15:39.121Z,1.50
2023-05-12T16:18:10.956Z,1.70
2023-05-12T16:20:41.932Z,1.70
2023-05-12T16:23:11.050Z,2.20
2023-05-12T16:25:41.175Z,2.20
2023-05-12T16:28:11.378Z,2.10
2023-05-12T16:30:40.090Z,2.13
2023-05-12T16:33:09.035Z,1.70
2023-05-12T16:35:40.316Z,1.60
2023-05-12T16:38:09.020Z,1.70
2023-05-12T16:40:37.604Z,1.60
2023-05-12T16:43:06.403Z,2.33
2023-05-12T16:45:37.135Z,1.90
2023-05-12T16:48:06.656Z,2.40
2023-05-12T16:50:35.963Z,2.23
2023-05-12T16:53:04.622Z,2.20
2023-05-12T16:55:33.656Z,1.90
2023-05-12T16:58:02.332Z,1.87
2023-05-12T17:00:31.733Z,1.57
2023-05-12T17:03:04.426Z,1.70
2023-05-12T17:05:33.525Z,1.90
2023-05-12T17:08:02.042Z,1.60
2023-05-12T17:10:30.618Z,1.77
2023-05-12T17:12:59.502Z,2.00
2023-05-12T17:15:28.121Z,1.67
2023-05-12T17:17:56.962Z,1.53
2023-05-12T17:20:27.294Z,1.70
2023-05-12T17:22:55.696Z,2.00
2023-05-12T17:25:24.397Z,1.80
2023-05-12T17:27:52.966Z,1.60
2023-05-12T17:30:21.816Z,1.97
2023-05-12T17:32:50.760Z,2.13
2023-05-12T17:35:19.369Z,1.80
2023-05-12T17:37:56.232Z,2.07
2023-05-12T17:40:25.027Z,2.20
2023-05-12T17:42:53.400Z,2.00
2023-05-12T17:45:22.162Z,1.77
2023-05-12T17:47:51.425Z,1.90
2023-05-12T17:50:20.023Z,1.70
2023-05-12T17:52:49.913Z,1.80
2023-05-12T17:55:18.916Z,1.73
2023-05-12T17:57:49.514Z,1.80
2023-05-12T18:00:18.635Z,1.93
2023-05-12T18:02:47.322Z,2.10
2023-05-12T18:05:16.071Z,2.07
2023-05-12T18:07:44.594Z,2.50
2023-05-12T18:10:14.681Z,2.37
2023-05-12T18:12:43.215Z,2.07
2023-05-12T18:15:12.656Z,1.97
2023-05-12T18:17:41.603Z,2.20
2023-05-12T18:20:13.254Z,1.90
2023-05-12T18:22:41.798Z,3.67
2023-05-12T18:25:13.098Z,1.70
2023-05-12T18:27:49.078Z,1.83
2023-05-12T18:30:24.612Z,2.47
2023-05-12T18:33:01.511Z,2.40
2023-05-12T18:35:37.625Z,1.63
2023-05-12T18:38:13.857Z,1.97
2023-05-12T18:40:43.003Z,2.30
2023-05-12T18:43:13.050Z,2.67
2023-05-12T18:45:41.750Z,2.97
2023-05-12T18:48:15.125Z,2.90
2023-05-12T18:50:49.638Z,2.03
2023-05-12T18:53:23.700Z,2.07
2023-05-12T18:55:52.808Z,2.20
2023-05-12T18:58:23.469Z,2.60
2023-05-12T19:00:52.567Z,2.50
2023-05-12T19:03:21.933Z,2.10
2023-05-12T19:05:50.868Z,2.00
2023-05-12T19:08:20.211Z,2.20
2023-05-12T19:10:49.672Z,2.17
2023-05-12T19:13:18.171Z,2.10
2023-05-12T19:15:48.111Z,2.20
2023-05-12T19:18:17.390Z,2.07
2023-05-12T19:20:45.861Z,1.93
2023-05-12T19:23:14.401Z,2.03
2023-05-12T19:25:43.610Z,3.10
2023-05-12T19:28:12.156Z,2.80
2023-05-12T19:30:40.641Z,2.77
2023-05-12T19:33:10.600Z,2.60
2023-05-12T19:35:39.243Z,2.60
2023-05-12T19:38:07.639Z,2.50
2023-05-12T19:40:36.105Z,2.70
2023-05-12T19:43:05.368Z,2.87
2023-05-12T19:45:34.560Z,2.60
2023-05-12T19:48:03.254Z,3.03
2023-05-12T19:50:33.328Z,3.00
2023-05-12T19:53:01.727Z,2.70
2023-05-12T19:55:30.376Z,2.70
2023-05-12T19:57:59.049Z,3.07
2023-05-12T20:00:27.554Z,3.60
2023-05-12T20:02:56.192Z,3.70
2023-05-12T20:05:24.911Z,3.43
2023-05-12T20:07:54.763Z,3.07
2023-05-12T20:10:23.221Z,2.80
2023-05-12T20:12:52.409Z,3.57
2023-05-12T20:15:21.231Z,2.77
2023-05-12T20:17:50.167Z,2.60
2023-05-12T20:20:19.178Z,2.90
2023-05-12T20:22:47.596Z,3.00
2023-05-12T20:25:18.303Z,2.87
2023-05-12T20:27:47.077Z,3.10
2023-05-12T20:30:16.340Z,3.40
2023-05-12T20:32:45.054Z,3.23
2023-05-12T20:35:13.752Z,3.27
2023-05-12T20:37:42.196Z,3.23
2023-05-12T20:40:11.603Z,3.57
2023-05-12T20:42:41.866Z,3.40
2023-05-12T20:45:11.514Z,3.53
2023-05-12T20:47:40.005Z,3.10
2023-05-12T20:50:09.463Z,3.20
2023-05-12T20:52:38.857Z,2.97
2023-05-12T20:55:08.774Z,3.37
2023-05-12T20:57:38.057Z,3.73
2023-05-12T21:00:10.915Z,2.97
2023-05-12T21:02:39.642Z,3.10
2023-05-12T21:05:08.576Z,3.00
2023-05-12T21:07:37.232Z,3.70
2023-05-12T21:10:06.574Z,3.47
2023-05-12T21:12:35.244Z,3.60
2023-05-12T21:15:04.190Z,3.83
2023-05-12T21:17:34.105Z,3.33
2023-05-12T21:20:02.622Z,3.40
2023-05-12T21:22:31.158Z,3.40
2023-05-12T21:24:59.693Z,3.20
2023-05-12T21:27:28.961Z,3.43
2023-05-12T21:29:58.108Z,3.90
2023-05-12T21:32:26.895Z,3.50
2023-05-12T21:34:57.426Z,3.07
2023-05-12T21:37:25.969Z,2.90
2023-05-12T21:39:54.456Z,3.37
2023-05-12T21:42:22.851Z,3.70
2023-05-12T21:44:51.952Z,3.40
2023-05-12T21:47:20.557Z,3.40
2023-05-12T21:49:49.161Z,3.23
2023-05-12T21:52:19.138Z,3.20
2023-05-12T21:54:48.138Z,3.63
2023-05-12T21:57:16.771Z,3.00
2023-05-12T21:59:45.218Z,2.97
2023-05-12T22:02:14.152Z,2.87
2023-05-12T22:04:42.649Z,3.33
2023-05-12T22:07:11.095Z,2.87
2023-05-12T22:09:41.023Z,3.00
2023-05-12T22:12:13.778Z,2.90
2023-05-12T22:14:42.248Z,3.27
2023-05-12T22:17:10.753Z,3.10
2023-05-12T22:19:39.258Z,3.00
2023-05-12T22:22:07.975Z,3.50
2023-05-12T22:24:36.669Z,3.33
2023-05-12T22:27:07.357Z,3.77
2023-05-12T22:29:35.927Z,3.00
2023-05-12T22:32:04.449Z,3.30
2023-05-12T22:34:32.851Z,3.20
2023-05-12T22:37:01.665Z,3.57
2023-05-12T22:39:30.151Z,2.80
2023-05-12T22:41:58.652Z,3.13
2023-05-12T22:44:28.558Z,2.80
2023-05-12T22:46:57.056Z,2.73
2023-05-12T22:49:25.809Z,2.87
2023-05-12T22:51:54.277Z,2.80
2023-05-12T22:54:22.913Z,3.80
2023-05-12T22:56:51.303Z,3.10
2023-05-12T22:59:19.979Z,3.33
2023-05-12T23:01:50.035Z,3.03
2023-05-12T23:04:18.651Z,3.33
2023-05-12T23:06:47.444Z,2.97
2023-05-12T23:09:16.377Z,3.43
2023-05-12T23:11:44.858Z,3.00
2023-05-12T23:14:13.441Z,3.00
2023-05-12T23:16:41.954Z,3.07
2023-05-12T23:19:11.966Z,3.17
2023-05-12T23:21:40.684Z,3.17
2023-05-12T23:24:09.786Z,3.60
2023-05-12T23:26:38.217Z,3.13
2023-05-12T23:29:06.750Z,3.47
2023-05-12T23:31:35.329Z,3.87
2023-05-12T23:34:03.836Z,3.07
2023-05-12T23:36:34.321Z,2.97
2023-05-12T23:39:03.093Z,3.37
2023-05-12T23:41:33.397Z,3.60
2023-05-12T23:44:02.486Z,3.83
2023-05-12T23:46:30.985Z,4.00
2023-05-12T23:48:59.972Z,4.10
2023-05-12T23:51:28.728Z,4.73
2023-05-12T23:53:58.678Z,4.63
2023-05-12T23:56:27.126Z,4.17
2023-05-12T23:58:55.612Z,4.53
